createdAt,value
2017-12-30T00:01:55.900Z,15.77
2017-12-30T00:04:24.737Z,18.50
2017-12-30T00:06:53.574Z,23.20
2017-12-30T00:09:23.211Z,15.07
2017-12-30T00:11:54.114Z,15.73
2017-12-30T00:14:22.963Z,13.20
2017-12-30T00:16:51.794Z,13.20
2017-12-30T00:19:20.650Z,13.70
2017-12-30T00:21:49.505Z,15.40
2017-12-30T00:24:19.133Z,15.03
2017-12-30T00:26:47.985Z,17.10
2017-12-30T00:29:16.818Z,15.37
2017-12-30T00:31:45.666Z,13.97
2017-12-30T00:34:14.503Z,14.50
2017-12-30T00:36:43.690Z,18.50
2017-12-30T00:39:13.273Z,10.13
2017-12-30T00:41:42.906Z,18.53
2017-12-30T00:44:11.713Z,20.80
2017-12-30T00:46:40.551Z,15.37
2017-12-30T00:49:09.379Z,12.83
2017-12-30T00:51:38.218Z,12.93
2017-12-30T00:54:07.076Z,14.70
2017-12-30T00:56:35.929Z,9.40
2017-12-30T00:59:06.367Z,14.27
2017-12-30T01:01:35.174Z,8.17
2017-12-30T01:04:04.089Z,6.77
2017-12-30T01:06:32.902Z,11.13
2017-12-30T01:09:02.513Z,9.90
2017-12-30T01:11:32.127Z,12.90
2017-12-30T01:14:00.963Z,12.40
2017-12-30T01:16:30.018Z,10.37
2017-12-30T01:18:58.862Z,11.70
2017-12-30T01:21:27.707Z,8.77
2017-12-30T01:23:56.534Z,10.03
2017-12-30T01:26:26.301Z,16.30
2017-12-30T01:28:55.118Z,15.23
2017-12-30T01:31:24.724Z,7.73
2017-12-30T01:33:54.326Z,12.63
2017-12-30T01:36:23.943Z,9.13
2017-12-30T01:38:52.921Z,15.93
2017-12-30T01:41:22.538Z,9.70
2017-12-30T01:43:52.138Z,6.90
2017-12-30T01:46:21.753Z,14.30
2017-12-30T01:49:02.589Z,9.87
2017-12-30T01:51:31.439Z,14.40
2017-12-30T01:54:01.043Z,9.70
2017-12-30T01:56:29.881Z,15.27
2017-12-30T01:58:58.713Z,9.97
2017-12-30T02:01:27.553Z,8.87
2017-12-30T02:03:56.378Z,12.70
2017-12-30T02:06:25.256Z,10.27
2017-12-30T02:08:54.072Z,12.80
2017-12-30T02:11:22.923Z,9.77
2017-12-30T02:13:51.750Z,8.00
2017-12-30T02:16:20.627Z,10.27
2017-12-30T02:18:49.470Z,10.83
2017-12-30T02:21:18.306Z,17.67
2017-12-30T02:23:47.170Z,12.80
2017-12-30T02:26:17.593Z,8.03
2017-12-30T02:28:47.202Z,11.20
2017-12-30T02:31:16.789Z,11.47
2017-12-30T02:33:46.209Z,16.23
2017-12-30T02:36:15.818Z,12.80
2017-12-30T02:38:45.434Z,12.27
2017-12-30T02:41:15.458Z,10.33
2017-12-30T02:43:44.340Z,10.83
2017-12-30T02:46:13.925Z,9.90
2017-12-30T02:48:42.754Z,16.33
2017-12-30T02:51:11.710Z,8.00
2017-12-30T02:53:40.555Z,10.70
2017-12-30T02:56:09.403Z,12.00
2017-12-30T02:58:39.001Z,11.73
2017-12-30T03:01:08.687Z,18.27
2017-12-30T03:03:37.459Z,8.47
2017-12-30T03:06:06.303Z,8.33
2017-12-30T03:08:35.889Z,9.73
2017-12-30T03:11:04.759Z,11.97
2017-12-30T03:13:33.582Z,14.27
2017-12-30T03:16:02.431Z,8.80
2017-12-30T03:18:32.051Z,8.63
2017-12-30T03:21:00.864Z,9.40
2017-12-30T03:23:29.694Z,14.73
2017-12-30T03:25:59.716Z,13.63
2017-12-30T03:28:29.330Z,14.60
2017-12-30T03:31:00.098Z,12.90
2017-12-30T03:33:29.077Z,11.63
2017-12-30T03:35:57.885Z,19.33
2017-12-30T03:38:26.868Z,18.50
2017-12-30T03:40:55.705Z,15.87
2017-12-30T03:43:24.518Z,15.00
2017-12-30T03:45:54.119Z,17.30
2017-12-30T03:48:23.745Z,16.60
2017-12-30T03:50:52.591Z,14.47
2017-12-30T03:53:21.431Z,14.07
2017-12-30T03:55:50.261Z,9.30
2017-12-30T03:58:19.098Z,14.07
2017-12-30T04:00:47.915Z,13.50
2017-12-30T04:03:16.734Z,9.23
2017-12-30T04:05:45.573Z,8.80
2017-12-30T04:08:14.439Z,10.33
2017-12-30T04:10:43.245Z,10.37
2017-12-30T04:13:12.061Z,17.73
2017-12-30T04:15:41.293Z,10.37
2017-12-30T04:18:11.513Z,11.60
2017-12-30T04:20:40.363Z,9.60
2017-12-30T04:23:09.179Z,13.07
2017-12-30T04:25:38.821Z,6.87
2017-12-30T04:28:07.630Z,7.50
2017-12-30T04:30:36.457Z,19.83
2017-12-30T04:33:05.265Z,12.80
2017-12-30T04:35:34.110Z,11.60
2017-12-30T04:38:03.985Z,11.00
2017-12-30T04:40:32.817Z,17.57
2017-12-30T04:43:01.678Z,12.80
2017-12-30T04:45:30.534Z,10.83
2017-12-30T04:47:59.362Z,11.90
2017-12-30T04:50:28.190Z,14.50
2017-12-30T04:52:57.031Z,8.13
2017-12-30T04:55:25.865Z,18.13
2017-12-30T04:57:55.897Z,7.33
2017-12-30T05:00:25.578Z,10.23
2017-12-30T05:02:54.397Z,12.90
2017-12-30T05:05:24.714Z,9.77
2017-12-30T05:07:54.329Z,8.43
2017-12-30T05:10:23.942Z,10.67
2017-12-30T05:12:53.575Z,14.50
2017-12-30T05:15:22.369Z,6.90
2017-12-30T05:17:51.982Z,18.93
2017-12-30T05:20:21.591Z,9.40
2017-12-30T05:22:50.862Z,8.27
2017-12-30T05:25:19.702Z,10.10
2017-12-30T05:27:48.553Z,12.47
2017-12-30T05:30:17.380Z,7.70
2017-12-30T05:32:46.236Z,9.83
2017-12-30T05:35:15.070Z,11.97
2017-12-30T05:37:43.898Z,7.53
2017-12-30T05:40:12.735Z,8.17
2017-12-30T05:42:42.321Z,11.67
2017-12-30T05:45:11.923Z,8.53
2017-12-30T05:47:41.518Z,8.10
2017-12-30T05:50:10.349Z,8.33
2017-12-30T05:52:39.185Z,15.20
2017-12-30T05:55:08.045Z,10.63
2017-12-30T05:57:36.887Z,15.60
2017-12-30T06:00:06.530Z,9.70
2017-12-30T06:02:35.374Z,11.43
2017-12-30T06:05:04.197Z,17.53
2017-12-30T06:07:33.019Z,7.50
2017-12-30T06:10:01.854Z,12.10
2017-12-30T06:12:31.445Z,12.33
2017-12-30T06:15:00.278Z,8.77
2017-12-30T06:17:29.870Z,13.40
2017-12-30T06:19:59.555Z,7.60
2017-12-30T06:22:28.339Z,14.13
2017-12-30T06:24:57.182Z,11.97
2017-12-30T06:27:26.017Z,10.73
2017-12-30T06:29:54.853Z,10.70
2017-12-30T06:32:24.461Z,16.80
2017-12-30T06:34:53.306Z,12.70
2017-12-30T06:37:22.138Z,13.70
2017-12-30T06:39:50.994Z,15.90
2017-12-30T06:42:19.866Z,14.40
2017-12-30T06:44:48.689Z,13.17
2017-12-30T06:47:18.285Z,11.13
2017-12-30T06:49:48.538Z,8.50
2017-12-30T06:52:17.376Z,9.70
2017-12-30T06:54:46.274Z,20.50
2017-12-30T06:57:15.031Z,15.40
2017-12-30T06:59:43.865Z,13.60
2017-12-30T07:02:13.713Z,17.27
2017-12-30T07:04:42.570Z,16.40
2017-12-30T07:07:12.166Z,10.03
2017-12-30T07:09:41.799Z,8.40
2017-12-30T07:12:10.656Z,7.13
2017-12-30T07:14:39.492Z,10.53
2017-12-30T07:17:08.338Z,13.37
2017-12-30T07:19:38.022Z,12.07
2017-12-30T07:22:06.834Z,4.27
2017-12-30T07:24:36.433Z,12.00
2017-12-30T07:27:05.276Z,7.50
2017-12-30T07:29:34.684Z,4.83
2017-12-30T07:32:03.633Z,8.53
2017-12-30T07:34:33.231Z,4.70
2017-12-30T07:37:03.175Z,10.63
2017-12-30T07:39:32.030Z,4.87
2017-12-30T07:42:00.841Z,5.20
2017-12-30T07:44:29.817Z,3.90
2017-12-30T07:47:00.039Z,3.23
2017-12-30T07:49:29.646Z,5.00
2017-12-30T07:51:59.251Z,4.07
2017-12-30T07:54:28.087Z,1.50
2017-12-30T07:56:56.946Z,3.37
2017-12-30T07:59:26.555Z,3.17
2017-12-30T08:01:56.181Z,2.27
2017-12-30T08:04:25.014Z,4.40
2017-12-30T08:06:53.864Z,3.23
2017-12-30T08:09:22.687Z,3.13
2017-12-30T08:11:51.543Z,3.83
2017-12-30T08:14:20.421Z,3.73
2017-12-30T08:16:49.231Z,3.10
2017-12-30T08:19:18.088Z,2.73
2017-12-30T08:21:47.718Z,2.80
2017-12-30T08:24:16.537Z,1.47
2017-12-30T08:26:45.366Z,1.97
2017-12-30T08:29:14.989Z,2.67
2017-12-30T08:31:44.581Z,1.10
2017-12-30T08:34:14.195Z,1.90
2017-12-30T08:36:43.798Z,1.20
2017-12-30T08:39:13.392Z,1.30
2017-12-30T08:41:42.225Z,1.10
2017-12-30T08:44:12.055Z,2.00
2017-12-30T08:46:41.025Z,1.30
2017-12-30T08:49:09.862Z,0.77
2017-12-30T08:51:38.716Z,0.80
2017-12-30T08:54:08.209Z,0.80
2017-12-30T08:56:37.055Z,1.67
2017-12-30T08:59:05.883Z,1.17
2017-12-30T09:01:35.078Z,0.80
2017-12-30T09:04:04.141Z,0.90
2017-12-30T09:06:32.965Z,1.53
2017-12-30T09:09:02.545Z,0.83
2017-12-30T09:11:32.139Z,2.13
2017-12-30T09:14:02.491Z,0.93
2017-12-30T09:16:32.078Z,1.27
2017-12-30T09:19:00.940Z,0.70
2017-12-30T09:21:30.760Z,1.03
2017-12-30T09:24:00.497Z,1.00
2017-12-30T09:26:29.334Z,0.80
2017-12-30T09:28:59.195Z,1.27
2017-12-30T09:31:28.037Z,0.70
2017-12-30T09:33:56.905Z,0.90
2017-12-30T09:36:25.730Z,1.00
2017-12-30T09:38:54.561Z,1.17
2017-12-30T09:41:23.436Z,0.90
2017-12-30T09:43:52.222Z,1.00
2017-12-30T09:46:21.814Z,0.70
2017-12-30T09:48:51.399Z,1.07
2017-12-30T09:51:20.233Z,0.70
2017-12-30T09:53:49.069Z,0.80
2017-12-30T09:56:17.885Z,0.70
2017-12-30T09:58:47.474Z,2.03
2017-12-30T10:11:01.298Z,1.10
2017-12-30T10:13:30.902Z,1.20
2017-12-30T10:16:00.522Z,0.80
2017-12-30T10:18:30.127Z,1.33
2017-12-30T10:20:58.954Z,0.80
2017-12-30T10:23:29.803Z,0.80
2017-12-30T10:25:59.407Z,0.90
2017-12-30T10:28:29.037Z,0.80
2017-12-30T10:30:57.833Z,0.60
2017-12-30T10:33:26.673Z,1.57
2017-12-30T10:35:55.547Z,0.90
2017-12-30T10:38:24.400Z,0.87
2017-12-30T10:40:53.990Z,0.80
2017-12-30T10:43:22.828Z,2.30
2017-12-30T10:45:51.660Z,0.80
2017-12-30T10:48:21.245Z,0.70
2017-12-30T10:50:50.073Z,0.80
2017-12-30T10:53:18.907Z,0.70
2017-12-30T10:55:47.746Z,0.80
2017-12-30T10:58:16.626Z,1.13
2017-12-30T11:00:51.979Z,0.83
2017-12-30T11:03:20.820Z,1.00
2017-12-30T11:05:50.597Z,0.70
2017-12-30T11:08:19.393Z,1.73
2017-12-30T11:10:48.267Z,1.13
2017-12-30T11:13:17.110Z,2.33
2017-12-30T11:15:45.934Z,0.80
2017-12-30T11:18:15.538Z,1.53
2017-12-30T11:20:44.515Z,1.13
2017-12-30T11:23:13.573Z,1.17
2017-12-30T11:25:43.274Z,1.40
2017-12-30T11:28:12.109Z,1.40
2017-12-30T11:30:40.936Z,2.03
2017-12-30T11:33:09.779Z,2.23
2017-12-30T11:35:39.028Z,1.67
2017-12-30T11:38:07.869Z,5.47
2017-12-30T11:40:36.706Z,4.57
2017-12-30T11:43:05.542Z,5.10
2017-12-30T11:45:34.385Z,3.13
2017-12-30T11:48:03.402Z,7.67
2017-12-30T11:50:33.010Z,10.30
2017-12-30T11:53:02.602Z,10.40
2017-12-30T11:55:31.461Z,13.03
2017-12-30T11:58:00.267Z,13.80
2017-12-30T12:00:29.470Z,16.70
2017-12-30T12:02:58.301Z,16.70
2017-12-30T12:05:27.142Z,23.13
2017-12-30T12:07:55.969Z,15.00
2017-12-30T12:10:25.902Z,19.37
2017-12-30T12:12:54.739Z,28.90
2017-12-30T12:15:23.589Z,28.10
2017-12-30T12:17:52.471Z,14.20
2017-12-30T12:20:21.307Z,20.93
2017-12-30T12:22:50.171Z,19.70
2017-12-30T12:25:19.016Z,27.40
2017-12-30T12:27:47.932Z,21.27
2017-12-30T12:30:17.514Z,18.90
2017-12-30T12:32:46.349Z,32.07
2017-12-30T12:35:15.204Z,25.90
2017-12-30T12:37:44.036Z,24.60
2017-12-30T12:40:12.884Z,31.17
2017-12-30T12:42:42.488Z,36.33
2017-12-30T12:45:12.109Z,30.63
2017-12-30T12:47:42.018Z,23.80
2017-12-30T12:50:11.669Z,32.13
2017-12-30T12:52:40.507Z,33.90
2017-12-30T12:55:11.123Z,31.83
2017-12-30T12:57:39.970Z,28.60
2017-12-30T13:00:08.948Z,28.23
2017-12-30T13:02:38.608Z,32.60
2017-12-30T13:05:07.452Z,43.27
2017-12-30T13:07:36.294Z,31.73
2017-12-30T13:10:05.161Z,28.37
2017-12-30T13:12:34.018Z,33.17
2017-12-30T13:15:02.894Z,37.50
2017-12-30T13:17:32.518Z,29.73
2017-12-30T13:20:01.372Z,42.20
2017-12-30T13:22:30.283Z,30.70
2017-12-30T13:25:00.442Z,30.60
2017-12-30T13:27:29.383Z,35.03
2017-12-30T13:29:58.193Z,39.43
2017-12-30T13:32:27.833Z,46.20
2017-12-30T13:34:56.686Z,32.63
2017-12-30T13:37:25.541Z,38.90
2017-12-30T13:39:54.386Z,44.57
2017-12-30T13:42:24.017Z,38.43
2017-12-30T13:44:52.866Z,42.33
2017-12-30T13:47:22.514Z,32.60
2017-12-30T13:49:51.378Z,46.13
2017-12-30T13:52:20.236Z,30.40
2017-12-30T13:54:49.852Z,47.73
2017-12-30T13:57:19.479Z,47.03
2017-12-30T13:59:49.109Z,39.77
2017-12-30T14:02:17.962Z,41.33
2017-12-30T14:04:47.603Z,35.43
2017-12-30T14:07:16.523Z,39.40
2017-12-30T14:09:45.381Z,44.93
2017-12-30T14:12:14.230Z,38.37
2017-12-30T14:14:43.462Z,41.80
2017-12-30T14:17:13.093Z,51.97
2017-12-30T14:19:41.935Z,51.80
2017-12-30T14:22:11.727Z,50.73
2017-12-30T14:24:40.665Z,49.80
2017-12-30T14:27:09.726Z,46.57
2017-12-30T14:29:39.284Z,42.83
2017-12-30T14:32:08.152Z,47.27
2017-12-30T14:34:37.015Z,48.83
2017-12-30T14:37:06.656Z,44.40
2017-12-30T14:39:36.010Z,32.00
2017-12-30T14:42:05.156Z,45.53
2017-12-30T14:44:34.014Z,41.70
2017-12-30T14:47:03.642Z,47.77
2017-12-30T14:49:33.123Z,35.93
2017-12-30T14:52:03.694Z,40.20
2017-12-30T14:54:32.566Z,47.77
2017-12-30T14:57:01.427Z,41.50
2017-12-30T14:59:30.295Z,50.33
2017-12-30T15:01:59.156Z,39.23
2017-12-30T15:04:28.023Z,39.00
2017-12-30T15:06:56.873Z,43.17
2017-12-30T15:09:25.735Z,48.13
2017-12-30T15:11:54.591Z,37.43
2017-12-30T15:14:23.500Z,56.67
2017-12-30T15:16:53.054Z,41.23
2017-12-30T15:19:22.697Z,37.77
2017-12-30T15:21:51.548Z,40.43
2017-12-30T15:24:21.597Z,44.47
2017-12-30T15:26:50.911Z,35.60
2017-12-30T15:29:19.761Z,36.77
2017-12-30T15:31:49.430Z,45.93
2017-12-30T15:34:18.270Z,43.50
2017-12-30T15:36:47.901Z,39.63
2017-12-30T15:39:16.762Z,39.10
2017-12-30T15:41:46.151Z,35.37
2017-12-30T15:44:15.004Z,33.30
2017-12-30T15:46:43.870Z,37.83
2017-12-30T15:49:12.739Z,38.87
2017-12-30T15:51:42.390Z,39.80
2017-12-30T15:54:11.229Z,45.13
2017-12-30T15:56:40.842Z,34.47
2017-12-30T15:59:10.524Z,45.53
2017-12-30T16:01:39.350Z,31.03
2017-12-30T16:04:08.188Z,31.70
2017-12-30T16:06:37.077Z,47.13
2017-12-30T16:09:05.941Z,42.00
2017-12-30T16:11:34.804Z,29.53
2017-12-30T16:14:04.447Z,38.13
2017-12-30T16:16:33.945Z,35.90
2017-12-30T16:19:03.049Z,36.93
2017-12-30T16:21:32.648Z,40.53
2017-12-30T16:24:01.837Z,39.90
2017-12-30T16:26:30.676Z,49.40
2017-12-30T16:29:00.312Z,40.87
2017-12-30T16:31:29.157Z,40.03
2017-12-30T16:33:58.770Z,41.20
2017-12-30T16:36:28.078Z,41.47
2017-12-30T16:38:57.718Z,42.78
2017-12-30T16:41:27.424Z,40.33
2017-12-30T16:43:56.275Z,41.33
2017-12-30T16:46:25.159Z,31.87
2017-12-30T16:48:53.994Z,38.13
2017-12-30T16:51:23.193Z,35.03
2017-12-30T16:53:52.050Z,33.80
2017-12-30T16:56:21.722Z,33.10
2017-12-30T16:58:51.149Z,32.77
2017-12-30T17:01:20.794Z,28.13
2017-12-30T17:03:49.638Z,35.03
2017-12-30T17:06:18.502Z,39.77
2017-12-30T17:08:47.415Z,32.70
2017-12-30T17:11:16.257Z,31.17
2017-12-30T17:13:45.117Z,30.80
2017-12-30T17:16:14.738Z,33.97
2017-12-30T17:18:43.591Z,33.63
2017-12-30T17:21:12.426Z,35.40
2017-12-30T17:23:41.267Z,38.97
2017-12-30T17:26:10.218Z,40.63
2017-12-30T17:28:39.060Z,39.97
2017-12-30T17:31:07.917Z,39.23
2017-12-30T17:33:36.788Z,30.67
2017-12-30T17:36:06.194Z,40.73
2017-12-30T17:38:35.058Z,41.50
2017-12-30T17:41:04.698Z,30.27
2017-12-30T17:43:34.004Z,43.63
2017-12-30T17:46:02.927Z,46.90
2017-12-30T17:48:32.482Z,35.00
2017-12-30T17:51:01.337Z,42.00
2017-12-30T17:53:30.186Z,37.17
2017-12-30T17:55:59.034Z,28.13
2017-12-30T17:58:27.923Z,33.43
2017-12-30T18:00:58.070Z,32.00
2017-12-30T18:03:26.929Z,39.83
2017-12-30T18:05:56.558Z,35.13
2017-12-30T18:08:25.401Z,40.10
2017-12-30T18:10:55.992Z,28.87
2017-12-30T18:13:25.158Z,26.07
2017-12-30T18:15:54.031Z,28.10
2017-12-30T18:18:23.647Z,37.97
2017-12-30T18:20:53.300Z,34.13
2017-12-30T18:23:22.170Z,31.63
2017-12-30T18:25:52.397Z,36.10
2017-12-30T18:28:22.004Z,34.53
2017-12-30T18:30:51.835Z,34.70
2017-12-30T18:33:20.697Z,32.40
2017-12-30T18:35:49.570Z,43.70
2017-12-30T18:38:18.438Z,30.10
2017-12-30T18:40:47.367Z,30.10
2017-12-30T18:43:16.986Z,26.27
2017-12-30T18:45:46.621Z,36.07
2017-12-30T18:48:15.494Z,31.67
2017-12-30T18:50:45.127Z,37.10
2017-12-30T18:53:14.733Z,32.70
2017-12-30T18:55:43.596Z,26.20
2017-12-30T18:58:13.228Z,40.47
2017-12-30T19:00:42.079Z,42.17
2017-12-30T19:03:11.724Z,30.80
2017-12-30T19:05:41.538Z,29.63
2017-12-30T19:08:10.438Z,37.43
2017-12-30T19:10:39.323Z,29.67
2017-12-30T19:13:08.725Z,31.63
2017-12-30T19:15:37.601Z,30.23
2017-12-30T19:18:06.470Z,37.40
2017-12-30T19:20:36.120Z,28.20
2017-12-30T19:23:04.970Z,27.73
2017-12-30T19:25:33.838Z,33.90
2017-12-30T19:28:04.258Z,34.93
2017-12-30T19:30:34.078Z,34.43
2017-12-30T19:33:02.931Z,32.83
2017-12-30T19:35:32.613Z,25.47
2017-12-30T19:38:01.470Z,31.23
2017-12-30T19:40:30.319Z,32.07
2017-12-30T19:42:59.954Z,23.77
2017-12-30T19:45:28.822Z,27.60
2017-12-30T19:47:57.706Z,32.17
2017-12-30T19:50:27.326Z,31.60
2017-12-30T19:52:57.004Z,34.33
2017-12-30T19:55:25.854Z,30.50
2017-12-30T19:57:54.745Z,26.57
2017-12-30T20:00:23.653Z,30.53
2017-12-30T20:02:53.266Z,31.00
2017-12-30T20:05:22.222Z,24.27
2017-12-30T20:07:51.071Z,35.00
2017-12-30T20:10:19.995Z,29.50
2017-12-30T20:12:48.871Z,27.90
2017-12-30T20:15:18.532Z,31.63
2017-12-30T20:17:47.399Z,31.93
2017-12-30T20:20:17.083Z,27.87
2017-12-30T20:22:45.984Z,30.80
2017-12-30T20:25:14.842Z,24.40
2017-12-30T20:27:44.581Z,29.80
2017-12-30T20:30:13.503Z,35.20
2017-12-30T20:32:42.376Z,35.93
2017-12-30T20:35:11.238Z,37.90
2017-12-30T20:37:40.200Z,33.73
2017-12-30T20:40:09.068Z,31.00
2017-12-30T20:42:38.016Z,29.67
2017-12-30T20:45:07.770Z,28.07
2017-12-30T20:47:36.773Z,30.43
2017-12-30T20:50:05.869Z,27.27
2017-12-30T20:52:34.995Z,28.27
2017-12-30T20:55:05.649Z,38.10
2017-12-30T20:57:35.359Z,33.90
2017-12-30T21:00:04.342Z,28.00
2017-12-30T21:02:33.358Z,34.20
2017-12-30T21:05:02.201Z,24.00
2017-12-30T21:07:32.553Z,34.80
2017-12-30T21:10:01.418Z,33.37
2017-12-30T21:12:31.212Z,28.17
2017-12-30T21:15:00.047Z,25.87
2017-12-30T21:17:29.051Z,35.20
2017-12-30T21:19:58.012Z,29.67
2017-12-30T21:22:26.968Z,24.60
2017-12-30T21:24:55.802Z,32.07
2017-12-30T21:27:24.842Z,32.67
2017-12-30T21:29:53.717Z,43.93
2017-12-30T21:32:22.565Z,40.43
2017-12-30T21:34:52.250Z,29.93
2017-12-30T21:37:22.028Z,32.77
2017-12-30T21:39:50.981Z,34.90
2017-12-30T21:42:19.859Z,30.53
2017-12-30T21:44:49.850Z,38.43
2017-12-30T21:47:20.062Z,45.40
2017-12-30T21:49:49.706Z,31.23
2017-12-30T21:52:18.783Z,29.80
2017-12-30T21:54:47.714Z,38.10
2017-12-30T21:57:16.595Z,37.37
2017-12-30T21:59:46.346Z,43.33
2017-12-30T22:02:15.188Z,35.90
2017-12-30T22:04:44.085Z,36.33
2017-12-30T22:07:12.939Z,39.23
2017-12-30T22:09:42.646Z,40.23
2017-12-30T22:12:19.065Z,36.67
2017-12-30T22:14:50.609Z,26.47
2017-12-30T22:17:35.782Z,36.53
2017-12-30T22:20:04.610Z,27.27
2017-12-30T22:22:33.471Z,37.20
2017-12-30T22:25:02.355Z,38.53
2017-12-30T22:27:31.627Z,31.63
2017-12-30T22:30:01.267Z,29.23
2017-12-30T22:32:30.105Z,36.77
2017-12-30T22:34:59.744Z,35.10
2017-12-30T22:37:28.604Z,39.73
2017-12-30T22:39:57.483Z,29.53
2017-12-30T22:42:27.103Z,42.07
2017-12-30T22:44:55.998Z,28.63
2017-12-30T22:47:24.865Z,38.20
2017-12-30T22:49:53.695Z,33.30
2017-12-30T22:52:22.870Z,34.57
2017-12-30T22:54:51.713Z,39.90
2017-12-30T22:57:21.318Z,34.30
2017-12-30T22:59:50.182Z,36.97
2017-12-30T23:02:19.033Z,31.03
2017-12-30T23:04:48.671Z,50.50
2017-12-30T23:07:17.523Z,33.20
2017-12-30T23:09:47.196Z,28.60
2017-12-30T23:12:16.050Z,42.50
2017-12-30T23:14:44.907Z,44.87
2017-12-30T23:17:14.554Z,36.77
2017-12-30T23:19:43.410Z,45.23
2017-12-30T23:22:13.043Z,47.53
2017-12-30T23:24:41.922Z,53.00
2017-12-30T23:27:11.514Z,43.50
2017-12-30T23:29:41.185Z,49.40
2017-12-30T23:32:10.049Z,53.27
2017-12-30T23:34:38.912Z,35.60
2017-12-30T23:37:08.545Z,42.27
2017-12-30T23:39:38.148Z,40.57
2017-12-30T23:42:07.020Z,35.63
2017-12-30T23:44:36.650Z,39.90
2017-12-30T23:47:05.500Z,42.47
2017-12-30T23:49:35.551Z,50.30
2017-12-30T23:52:04.409Z,48.03
2017-12-30T23:54:34.060Z,43.13
2017-12-30T23:57:02.906Z,48.50
2017-12-30T23:59:32.542Z,46.00
